Cal Nev Ari, Nevada
Current Conditions -  °F | °C
As of 2:55 AM on Sunday 23 Nov 2014 (Local Time) from KIFP Reporting Station
Clear Clear  
Wind Chill: 57°   Ceiling: Unl
Heat Index: 57°   Visibility: 10mi
Dew Point: 34°   Wind: 9mph
Humidity: 41%   Direction: 340°NNW
Pressure: 29.99"   Gusts: NA
Location:  35.46°N, 114.92°W
Report Text: KIFP 231055Z AUTO 34008KT 10SM CLR 14/01 A2999 RMK AO2 PWINO
Loading
Personal Weather Stations






























Interactive Weather Map New forecast layout! Learn more

10-Day Weather Forecast

Advertisements
Track Severe Weather on mobile